createdAt,value
2022-10-18T00:01:28.108Z,18.99
2022-10-18T00:03:58.282Z,19.00
2022-10-18T00:06:28.669Z,18.96
2022-10-18T00:08:58.839Z,18.96
2022-10-18T00:11:28.853Z,18.96
2022-10-18T00:13:58.808Z,18.93
2022-10-18T00:16:28.962Z,18.96
2022-10-18T00:18:59.086Z,18.93
2022-10-18T00:21:29.357Z,18.93
2022-10-18T00:23:59.007Z,18.89
2022-10-18T00:26:31.218Z,18.90
2022-10-18T00:29:05.254Z,18.87
2022-10-18T00:31:37.993Z,18.87
2022-10-18T00:34:17.163Z,18.87
2022-10-18T00:36:47.853Z,18.86
2022-10-18T00:39:21.066Z,18.83
2022-10-18T00:41:52.273Z,18.77
2022-10-18T00:44:28.364Z,18.79
2022-10-18T00:47:06.602Z,18.69
2022-10-18T00:49:41.362Z,18.73
2022-10-18T00:52:25.719Z,18.64
2022-10-18T00:54:58.403Z,18.67
2022-10-18T00:57:29.035Z,18.66
2022-10-18T00:59:59.378Z,18.64
2022-10-18T01:02:29.931Z,18.66
2022-10-18T01:05:00.255Z,18.64
2022-10-18T01:07:40.726Z,18.63
2022-10-18T01:10:55.650Z,18.62
2022-10-18T01:13:36.640Z,18.57
2022-10-18T01:16:15.620Z,18.57
2022-10-18T01:18:53.852Z,18.56
2022-10-18T01:21:48.562Z,18.56
2022-10-18T01:24:38.452Z,18.57
2022-10-18T01:27:45.539Z,18.55
2022-10-18T01:30:42.752Z,18.53
2022-10-18T01:33:31.143Z,18.52
2022-10-18T01:36:16.636Z,18.52
2022-10-18T01:38:48.982Z,18.52
2022-10-18T01:41:22.737Z,18.53
2022-10-18T01:43:58.351Z,18.53
2022-10-18T01:46:30.004Z,18.52
2022-10-18T01:49:01.145Z,18.53
2022-10-18T01:51:33.861Z,18.56
2022-10-18T01:54:04.184Z,18.53
2022-10-18T01:56:46.487Z,18.51
2022-10-18T01:59:34.926Z,18.52
2022-10-18T02:02:31.956Z,18.52
2022-10-18T02:05:08.687Z,18.49
2022-10-18T02:07:40.949Z,18.52
2022-10-18T02:10:29.611Z,18.51
2022-10-18T02:13:01.021Z,18.49
2022-10-18T02:15:40.980Z,18.51
2022-10-18T02:18:16.632Z,18.42
2022-10-18T02:20:48.398Z,18.43
2022-10-18T02:23:22.948Z,18.45
2022-10-18T02:25:53.501Z,18.45
2022-10-18T02:30:59.968Z,18.46
2022-10-18T02:33:30.209Z,18.48
2022-10-18T02:36:16.719Z,18.46
2022-10-18T02:38:48.384Z,18.45
2022-10-18T02:41:25.345Z,18.45
2022-10-18T02:43:55.992Z,18.48
2022-10-18T02:48:57.016Z,18.48
2022-10-18T02:51:27.467Z,18.48
2022-10-18T02:53:57.824Z,18.48
2022-10-18T02:56:27.421Z,18.48
2022-10-18T02:58:57.337Z,18.46
2022-10-18T03:01:27.482Z,18.46
2022-10-18T03:03:57.621Z,18.48
2022-10-18T03:06:27.793Z,18.46
2022-10-18T03:08:57.911Z,18.42
2022-10-18T03:11:27.636Z,18.42
2022-10-18T03:13:57.625Z,18.45
2022-10-18T03:16:27.625Z,18.42
2022-10-18T03:18:57.459Z,18.45
2022-10-18T03:21:27.502Z,18.42
2022-10-18T03:23:57.824Z,18.42
2022-10-18T03:26:27.565Z,18.39
2022-10-18T03:28:57.993Z,18.36
2022-10-18T03:31:28.280Z,18.35
2022-10-18T03:33:58.315Z,18.36
2022-10-18T03:36:28.559Z,18.39
2022-10-18T03:38:58.798Z,18.38
2022-10-18T03:41:28.960Z,18.38
2022-10-18T03:43:59.084Z,18.38
2022-10-18T03:46:29.220Z,18.38
2022-10-18T03:48:59.552Z,18.38
2022-10-18T03:51:29.158Z,18.35
2022-10-18T03:53:59.206Z,18.33
2022-10-18T03:56:29.544Z,18.35
2022-10-18T03:58:59.593Z,18.35
2022-10-18T04:01:29.872Z,18.36
2022-10-18T04:03:59.648Z,18.35
2022-10-18T04:06:29.658Z,18.35
2022-10-18T04:08:59.298Z,18.35
2022-10-18T04:11:29.180Z,18.32
2022-10-18T04:13:59.529Z,18.32
2022-10-18T04:16:29.740Z,18.29
2022-10-18T04:19:00.311Z,18.28
2022-10-18T04:21:30.470Z,18.28
2022-10-18T04:24:00.477Z,18.22
2022-10-18T04:26:30.648Z,18.22
2022-10-18T04:29:00.867Z,18.22
2022-10-18T04:31:30.614Z,18.21
2022-10-18T04:34:00.629Z,18.26
2022-10-18T04:36:30.277Z,18.24
2022-10-18T04:39:00.004Z,18.24
2022-10-18T04:41:30.123Z,18.25
2022-10-18T04:44:00.274Z,18.22
2022-10-18T04:46:30.860Z,18.22
2022-10-18T04:49:02.755Z,18.25
2022-10-18T04:51:33.269Z,18.29
2022-10-18T04:54:03.412Z,18.33
2022-10-18T04:56:34.190Z,18.35
2022-10-18T04:59:04.395Z,18.38
2022-10-18T05:01:34.545Z,18.38
2022-10-18T05:04:04.202Z,18.41
2022-10-18T05:06:34.361Z,18.42
2022-10-18T05:09:04.538Z,18.45
2022-10-18T05:11:34.598Z,18.49
2022-10-18T05:14:04.897Z,18.48
2022-10-18T05:16:35.236Z,18.39
2022-10-18T05:19:05.925Z,18.38
2022-10-18T05:21:36.213Z,18.35
2022-10-18T05:24:06.014Z,18.32
2022-10-18T05:26:35.939Z,18.36
2022-10-18T05:29:06.302Z,18.39
2022-10-18T05:31:36.524Z,18.38
2022-10-18T05:34:06.786Z,18.42
2022-10-18T05:36:37.025Z,18.41
2022-10-18T05:39:07.570Z,18.41
2022-10-18T05:41:38.363Z,18.42
2022-10-18T05:44:09.242Z,18.42
2022-10-18T05:46:39.423Z,18.43
2022-10-18T05:49:10.168Z,18.45
2022-10-18T05:51:40.306Z,18.45
2022-10-18T05:54:14.766Z,18.39
2022-10-18T05:56:44.999Z,18.36
2022-10-18T05:59:14.922Z,18.35
2022-10-18T06:01:45.378Z,18.28
2022-10-18T06:04:15.706Z,18.25
2022-10-18T06:06:45.488Z,18.26
2022-10-18T06:09:15.420Z,18.24
2022-10-18T06:11:45.670Z,18.19
2022-10-18T06:14:16.067Z,18.21
2022-10-18T06:16:45.725Z,18.13
2022-10-18T06:19:15.603Z,18.13
2022-10-18T06:21:45.928Z,18.08
2022-10-18T06:24:16.150Z,18.05
2022-10-18T06:26:46.408Z,18.06
2022-10-18T06:29:16.085Z,18.04
2022-10-18T06:31:46.107Z,18.01
2022-10-18T06:34:16.374Z,18.02
2022-10-18T06:36:46.399Z,18.02
2022-10-18T06:39:16.620Z,18.01
2022-10-18T06:41:46.781Z,18.02
2022-10-18T06:44:23.221Z,18.02
2022-10-18T06:46:54.699Z,18.00
2022-10-18T06:49:25.355Z,18.00
2022-10-18T06:51:56.206Z,17.98
2022-10-18T06:54:26.538Z,18.01
2022-10-18T06:56:59.854Z,18.01
2022-10-18T06:59:31.426Z,18.04
2022-10-18T07:02:01.984Z,18.02
2022-10-18T07:04:31.864Z,18.01
2022-10-18T07:07:22.390Z,18.01
2022-10-18T07:09:52.804Z,18.01
2022-10-18T07:12:22.868Z,18.01
2022-10-18T07:14:53.047Z,18.02
2022-10-18T07:17:23.193Z,18.05
2022-10-18T07:19:53.436Z,18.04
2022-10-18T07:22:25.952Z,18.05
2022-10-18T07:24:59.660Z,18.02
2022-10-18T07:27:30.172Z,18.02
2022-10-18T07:30:00.619Z,18.02
2022-10-18T07:32:30.709Z,18.02
2022-10-18T07:35:00.923Z,18.01
2022-10-18T07:37:32.165Z,18.01
2022-10-18T07:40:02.594Z,18.02
2022-10-18T07:42:32.878Z,18.01
2022-10-18T07:45:03.211Z,18.02
2022-10-18T07:47:35.229Z,18.02
2022-10-18T07:50:06.241Z,17.97
2022-10-18T07:52:36.360Z,18.01
2022-10-18T07:55:06.977Z,17.98
2022-10-18T07:57:37.110Z,17.94
2022-10-18T08:00:07.958Z,17.95
2022-10-18T08:02:41.127Z,17.97
2022-10-18T08:05:11.715Z,17.94
2022-10-18T08:07:41.884Z,17.97
2022-10-18T08:10:12.222Z,18.01
2022-10-18T08:12:42.959Z,18.02
2022-10-18T08:15:13.420Z,18.01
2022-10-18T08:17:44.805Z,18.02
2022-10-18T08:20:30.029Z,18.05
2022-10-18T08:23:01.400Z,18.04
2022-10-18T08:25:32.642Z,18.09
2022-10-18T08:28:03.156Z,18.11
2022-10-18T08:30:33.425Z,18.13
2022-10-18T08:33:04.444Z,18.18
2022-10-18T08:35:34.708Z,18.19
2022-10-18T08:38:05.224Z,18.18
2022-10-18T08:40:36.271Z,18.16
2022-10-18T08:43:26.282Z,18.16
2022-10-18T08:45:57.040Z,18.19
2022-10-18T08:48:49.648Z,18.21
2022-10-18T08:51:51.291Z,18.24
2022-10-18T08:54:39.015Z,18.26
2022-10-18T08:57:19.251Z,18.26
2022-10-18T08:59:49.635Z,18.29
2022-10-18T09:02:34.852Z,18.31
2022-10-18T09:05:23.613Z,18.33
2022-10-18T09:08:02.773Z,18.33
2022-10-18T09:13:51.739Z,18.36
2022-10-18T09:16:50.933Z,18.39
2022-10-18T09:19:41.661Z,18.41
2022-10-18T09:22:18.515Z,18.48
2022-10-18T09:25:05.198Z,18.48
2022-10-18T09:27:46.571Z,18.49
2022-10-18T09:30:22.592Z,18.49
2022-10-18T09:33:04.286Z,18.56
2022-10-18T09:36:02.072Z,18.60
2022-10-18T09:38:44.260Z,18.59
2022-10-18T09:41:17.343Z,18.59
2022-10-18T09:44:21.556Z,18.57
2022-10-18T09:47:07.350Z,18.60
2022-10-18T09:49:56.479Z,18.64
2022-10-18T09:53:16.066Z,18.70
2022-10-18T09:56:04.196Z,18.80
2022-10-18T09:58:43.946Z,18.84
2022-10-18T10:01:27.318Z,18.87
2022-10-18T10:03:57.590Z,18.92
2022-10-18T10:06:32.835Z,19.00
2022-10-18T10:09:07.420Z,19.10
2022-10-18T10:11:47.374Z,19.11
2022-10-18T10:14:27.543Z,19.17
2022-10-18T10:17:06.917Z,19.17
2022-10-18T10:19:58.254Z,19.28
2022-10-18T10:22:40.480Z,19.28
2022-10-18T10:25:27.258Z,19.34
2022-10-18T10:27:57.819Z,19.31
2022-10-18T10:30:35.526Z,19.34
2022-10-18T10:33:06.927Z,19.35
2022-10-18T10:35:54.264Z,19.34
2022-10-18T10:38:26.915Z,19.44
2022-10-18T10:40:57.911Z,19.44
2022-10-18T10:43:40.027Z,19.54
2022-10-18T10:46:13.792Z,19.61
2022-10-18T10:49:27.530Z,19.74
2022-10-18T10:52:08.254Z,19.90
2022-10-18T10:54:51.249Z,20.08
2022-10-18T10:57:26.910Z,20.10
2022-10-18T11:00:01.247Z,20.16
2022-10-18T11:02:37.987Z,20.19
2022-10-18T11:05:27.122Z,20.12
2022-10-18T11:08:01.057Z,20.05
2022-10-18T11:10:36.127Z,19.99
2022-10-18T11:13:30.022Z,20.08
2022-10-18T11:16:08.886Z,20.02
2022-10-18T11:18:42.055Z,20.08
2022-10-18T11:21:27.126Z,20.15
2022-10-18T11:23:58.555Z,20.17
2022-10-18T11:26:32.894Z,20.27
2022-10-18T11:29:06.394Z,20.33
2022-10-18T11:31:54.575Z,20.37
2022-10-18T11:34:42.835Z,20.41
2022-10-18T11:37:36.032Z,20.37
2022-10-18T11:40:34.653Z,20.34
2022-10-18T11:44:01.807Z,20.41
2022-10-18T11:47:06.692Z,20.43
2022-10-18T11:50:05.467Z,20.53
2022-10-18T11:53:07.443Z,20.58
2022-10-18T11:55:56.004Z,20.80
2022-10-18T11:58:49.089Z,21.16
2022-10-18T12:01:41.083Z,21.41
2022-10-18T12:04:21.259Z,21.50
2022-10-18T12:06:54.782Z,21.41
2022-10-18T12:09:41.649Z,21.35
2022-10-18T12:12:20.942Z,21.50
2022-10-18T12:14:55.311Z,21.39
2022-10-18T12:17:45.112Z,21.47
2022-10-18T12:20:23.437Z,21.53
2022-10-18T12:23:03.259Z,21.89
2022-10-18T12:25:38.412Z,22.24
2022-10-18T12:28:21.626Z,22.30
2022-10-18T12:30:58.606Z,22.58
2022-10-18T12:33:32.779Z,22.67
2022-10-18T12:36:24.130Z,22.88
2022-10-18T12:39:01.990Z,22.85
2022-10-18T12:41:37.346Z,22.54
2022-10-18T12:44:23.066Z,22.37
2022-10-18T12:47:02.457Z,22.57
2022-10-18T12:49:42.677Z,22.68
2022-10-18T12:52:30.580Z,22.81
2022-10-18T12:55:26.288Z,22.82
2022-10-18T12:57:56.701Z,22.89
2022-10-18T13:00:32.588Z,22.91
2022-10-18T13:03:13.127Z,22.82
2022-10-18T13:05:53.310Z,23.16
2022-10-18T13:08:36.441Z,22.98
2022-10-18T13:11:12.544Z,23.00
2022-10-18T13:14:18.482Z,22.99
2022-10-18T13:16:52.338Z,22.99
2022-10-18T13:19:58.011Z,22.86
2022-10-18T13:23:08.419Z,22.99
2022-10-18T13:26:03.172Z,22.84
2022-10-18T13:28:59.645Z,22.55
2022-10-18T13:32:07.310Z,22.51
2022-10-18T13:34:41.254Z,22.57
2022-10-18T13:37:11.364Z,22.64
2022-10-18T13:39:42.019Z,22.65
2022-10-18T13:42:21.634Z,22.44
2022-10-18T13:44:51.854Z,22.31
2022-10-18T13:47:35.089Z,22.27
2022-10-18T13:50:33.093Z,22.28
2022-10-18T13:53:23.702Z,22.38
2022-10-18T13:56:19.314Z,22.65
2022-10-18T13:59:14.489Z,23.02
2022-10-18T14:01:53.904Z,23.45
2022-10-18T14:04:36.489Z,23.61
2022-10-18T14:07:07.509Z,23.54
2022-10-18T14:09:54.142Z,23.33
2022-10-18T14:12:42.177Z,22.89
2022-10-18T14:15:21.107Z,22.68
2022-10-18T14:18:01.830Z,22.71
2022-10-18T14:20:49.579Z,22.78
2022-10-18T14:23:45.691Z,22.91
2022-10-18T14:26:23.848Z,22.92
2022-10-18T14:29:17.893Z,22.78
2022-10-18T14:31:57.744Z,22.67
2022-10-18T14:34:28.071Z,22.75
2022-10-18T14:36:58.372Z,22.89
2022-10-18T14:39:34.038Z,22.94
2022-10-18T14:42:04.587Z,22.99
2022-10-18T14:44:36.019Z,22.98
2022-10-18T14:47:17.849Z,22.95
2022-10-18T14:49:49.296Z,22.91
2022-10-18T14:52:25.352Z,22.91
2022-10-18T14:54:57.825Z,23.02
2022-10-18T14:57:37.767Z,23.03
2022-10-18T15:00:17.158Z,22.94
2022-10-18T15:02:47.740Z,22.89
2022-10-18T15:05:25.264Z,22.92
2022-10-18T15:07:56.907Z,22.92
2022-10-18T15:10:33.006Z,22.92
2022-10-18T15:13:10.541Z,22.94
2022-10-18T15:15:42.413Z,22.91
2022-10-18T15:18:27.508Z,22.86
2022-10-18T15:21:25.550Z,22.75
2022-10-18T15:23:56.805Z,22.62
2022-10-18T15:26:30.785Z,22.48
2022-10-18T15:29:04.334Z,22.47
2022-10-18T15:31:44.081Z,22.45
2022-10-18T15:34:20.201Z,22.45
2022-10-18T15:36:52.774Z,22.33
2022-10-18T15:39:28.284Z,22.18
2022-10-18T15:42:00.914Z,22.00
2022-10-18T15:44:36.175Z,21.90
2022-10-18T15:47:21.429Z,21.77
2022-10-18T15:49:53.730Z,21.65
2022-10-18T15:52:23.825Z,21.56
2022-10-18T15:54:53.880Z,21.47
2022-10-18T15:57:27.905Z,21.34
2022-10-18T16:00:08.832Z,21.22
2022-10-18T16:02:41.533Z,21.16
2022-10-18T16:05:20.263Z,21.15
2022-10-18T16:07:54.156Z,21.15
2022-10-18T16:10:24.788Z,21.16
2022-10-18T16:15:26.030Z,21.12
2022-10-18T16:17:56.183Z,21.05
2022-10-18T16:20:28.242Z,20.99
2022-10-18T16:22:58.396Z,21.01
2022-10-18T16:25:28.465Z,20.94
2022-10-18T16:27:58.160Z,20.91
2022-10-18T16:30:32.891Z,20.94
2022-10-18T16:33:03.023Z,20.98
2022-10-18T16:35:33.373Z,20.88
2022-10-18T16:38:03.892Z,20.75
2022-10-18T16:40:35.498Z,20.73
2022-10-18T16:43:07.720Z,20.63
2022-10-18T16:45:38.296Z,20.74
2022-10-18T16:48:08.759Z,20.70
2022-10-18T16:50:38.965Z,20.73
2022-10-18T16:53:09.339Z,20.71
2022-10-18T16:55:41.358Z,20.67
2022-10-18T16:58:19.257Z,20.70
2022-10-18T17:00:49.587Z,20.64
2022-10-18T17:03:19.946Z,20.74
2022-10-18T17:05:50.173Z,20.75
2022-10-18T17:08:21.282Z,20.90
2022-10-18T17:10:54.648Z,20.88
2022-10-18T17:13:25.648Z,20.95
2022-10-18T17:15:56.080Z,20.97
2022-10-18T17:18:31.722Z,21.01
2022-10-18T17:21:04.499Z,21.08
2022-10-18T17:23:35.353Z,21.26
2022-10-18T17:26:26.321Z,21.28
2022-10-18T17:28:58.003Z,21.29
2022-10-18T17:31:28.704Z,21.38
2022-10-18T17:33:59.831Z,21.39
2022-10-18T17:36:30.639Z,21.34
2022-10-18T17:39:01.087Z,21.39
2022-10-18T17:41:31.403Z,21.56
2022-10-18T17:44:03.727Z,21.69
2022-10-18T17:46:34.202Z,21.70
2022-10-18T17:49:04.427Z,21.49
2022-10-18T17:51:34.836Z,21.35
2022-10-18T17:54:06.939Z,21.22
2022-10-18T17:56:38.488Z,21.15
2022-10-18T17:59:08.919Z,21.11
2022-10-18T18:01:39.236Z,21.09
2022-10-18T18:04:09.538Z,21.05
2022-10-18T18:06:41.112Z,20.95
2022-10-18T18:09:17.150Z,20.99
2022-10-18T18:11:52.989Z,20.97
2022-10-18T18:14:23.294Z,20.98
2022-10-18T18:16:53.725Z,20.98
2022-10-18T18:19:25.187Z,21.06
2022-10-18T18:21:56.362Z,21.19
2022-10-18T18:24:27.567Z,21.25
2022-10-18T18:26:57.883Z,21.31
2022-10-18T18:29:28.976Z,21.25
2022-10-18T18:32:00.479Z,21.21
2022-10-18T18:34:30.888Z,21.22
2022-10-18T18:37:01.239Z,21.18
2022-10-18T18:39:31.432Z,21.12
2022-10-18T18:42:02.940Z,21.19
2022-10-18T18:44:33.861Z,21.22
2022-10-18T18:47:07.427Z,21.24
2022-10-18T18:49:41.206Z,21.19
2022-10-18T18:52:11.371Z,21.18
2022-10-18T18:54:41.104Z,21.29
2022-10-18T18:57:11.393Z,21.32
2022-10-18T18:59:41.536Z,21.45
2022-10-18T19:02:11.928Z,21.53
2022-10-18T19:04:42.610Z,21.60
2022-10-18T19:07:12.657Z,21.70
2022-10-18T19:09:43.583Z,21.82
2022-10-18T19:12:16.480Z,21.67
2022-10-18T19:14:49.226Z,21.57
2022-10-18T19:17:19.492Z,21.60
2022-10-18T19:19:49.577Z,21.57
2022-10-18T19:22:19.784Z,21.62
2022-10-18T19:24:49.448Z,21.66
2022-10-18T19:27:19.374Z,21.65
2022-10-18T19:29:49.997Z,21.60
2022-10-18T19:32:20.497Z,21.55
2022-10-18T19:34:50.758Z,21.57
2022-10-18T19:37:20.721Z,21.52
2022-10-18T19:39:50.686Z,21.45
2022-10-18T19:42:26.115Z,21.43
2022-10-18T19:44:57.681Z,21.36
2022-10-18T19:47:27.425Z,21.29
2022-10-18T19:49:57.994Z,21.21
2022-10-18T19:52:29.807Z,21.14
2022-10-18T19:55:00.030Z,21.05
2022-10-18T19:57:30.207Z,21.11
2022-10-18T20:00:00.888Z,21.08
2022-10-18T20:02:41.217Z,21.06
2022-10-18T20:05:11.964Z,21.11
2022-10-18T20:07:43.745Z,21.16
2022-10-18T20:10:13.968Z,21.65
2022-10-18T20:12:44.050Z,21.57
2022-10-18T20:15:14.298Z,21.56
2022-10-18T20:17:44.900Z,21.50
2022-10-18T20:20:15.145Z,21.36
2022-10-18T20:22:44.951Z,21.35
2022-10-18T20:25:15.073Z,21.25
2022-10-18T20:27:44.824Z,21.21
2022-10-18T20:30:14.639Z,21.16
2022-10-18T20:32:44.519Z,21.08
2022-10-18T20:35:14.498Z,21.08
2022-10-18T20:37:44.136Z,21.02
2022-10-18T20:40:14.993Z,20.99
2022-10-18T20:42:45.098Z,20.90
2022-10-18T20:45:15.355Z,20.83
2022-10-18T20:47:45.567Z,20.77
2022-10-18T20:50:15.435Z,20.80
2022-10-18T20:52:46.156Z,20.91
2022-10-18T20:55:16.416Z,21.31
2022-10-18T20:57:46.125Z,21.32
2022-10-18T21:00:16.753Z,21.26
2022-10-18T21:02:47.003Z,21.56
2022-10-18T21:05:17.737Z,21.12
2022-10-18T21:07:47.747Z,20.91
2022-10-18T21:10:17.869Z,21.01
2022-10-18T21:12:49.894Z,20.94
2022-10-18T21:15:21.231Z,20.77
2022-10-18T21:17:54.337Z,20.70
2022-10-18T21:20:24.699Z,20.56
2022-10-18T21:22:55.190Z,20.50
2022-10-18T21:25:25.664Z,20.41
2022-10-18T21:27:55.822Z,20.32
2022-10-18T21:30:25.834Z,20.26
2022-10-18T21:32:56.428Z,20.22
2022-10-18T21:35:26.657Z,20.17
2022-10-18T21:37:56.185Z,20.12
2022-10-18T21:40:26.089Z,20.06
2022-10-18T21:42:56.303Z,19.99
2022-10-18T21:45:25.983Z,19.99
2022-10-18T21:47:56.227Z,19.92
2022-10-18T21:50:26.293Z,19.90
2022-10-18T21:52:55.943Z,19.85
2022-10-18T21:55:26.170Z,19.82
2022-10-18T21:57:55.853Z,19.79
2022-10-18T22:00:25.956Z,19.75
2022-10-18T22:03:24.646Z,19.71
2022-10-18T22:06:10.843Z,19.74
2022-10-18T22:08:46.447Z,19.66
2022-10-18T22:11:17.065Z,19.65
2022-10-18T22:13:47.900Z,19.64
2022-10-18T22:16:18.690Z,19.64
2022-10-18T22:18:50.872Z,19.61
2022-10-18T22:21:22.089Z,19.64
2022-10-18T22:23:54.285Z,19.58
2022-10-18T22:26:29.740Z,19.54
2022-10-18T22:29:14.870Z,19.61
2022-10-18T22:31:48.027Z,19.64
2022-10-18T22:34:21.453Z,19.74
2022-10-18T22:36:52.340Z,19.71
2022-10-18T22:39:22.658Z,19.58
2022-10-18T22:41:56.859Z,19.62
2022-10-18T22:44:27.273Z,19.64
2022-10-18T22:46:57.405Z,19.66
2022-10-18T22:49:28.180Z,19.66
2022-10-18T22:51:58.388Z,19.64
2022-10-18T22:54:28.383Z,19.54
2022-10-18T22:56:58.694Z,19.50
2022-10-18T22:59:28.746Z,19.45
2022-10-18T23:01:58.773Z,19.47
2022-10-18T23:04:28.875Z,19.54
2022-10-18T23:06:58.543Z,19.55
2022-10-18T23:09:28.440Z,19.57
2022-10-18T23:11:58.185Z,19.42
2022-10-18T23:14:28.047Z,19.36
2022-10-18T23:16:58.396Z,19.35
2022-10-18T23:19:28.584Z,19.36
2022-10-18T23:21:59.459Z,19.39
2022-10-18T23:24:29.623Z,19.38
2022-10-18T23:26:59.791Z,19.31
2022-10-18T23:29:29.813Z,19.23
2022-10-18T23:31:59.739Z,19.15
2022-10-18T23:34:29.672Z,19.11
2022-10-18T23:36:59.614Z,19.06
2022-10-18T23:39:29.499Z,19.04
2022-10-18T23:41:59.487Z,19.07
2022-10-18T23:44:29.722Z,19.03
2022-10-18T23:46:59.972Z,19.01
2022-10-18T23:49:29.645Z,19.01
2022-10-18T23:51:59.583Z,18.96
2022-10-18T23:54:29.244Z,18.94
2022-10-18T23:56:59.477Z,18.94
2022-10-18T23:59:29.250Z,18.94
